Airfield :
LOGIN :

Register | Disclaimer

   EN    FR    IT 

 










Legend :    VFR   Marginal VFR   IFR   Intensive IFR   Very Intensive IFR
Visi :
Ceiling :
>= 8 km
>= 3000ft
5 to 8 km
1000 to 3000 ft
1500m to 5 km
500 to 1000 ft
800 to 1500m
200 to 500 ft
< 800m
< 200 ft
Symbols :   Thunderstorms  Fog  Heavy snow  Heavy precipitations  Wind > 20 kt
SIGMETs :     Misc.  Thunderstorms  Icing  Turbulence  Mountain Waves  Volcanic Ashes






- Airport Elevation : 218 ft
- IATA code : LBG


LFPB - Paris / Le Bourget

CURRENT METAR :
  • 090930Z AUTO 28012KT 250V310 9999 -RA SCT018/// BKN026/// BKN047/// 09/07 Q1004 TEMPO 32020G35KT 4000 SHRA FEW030CB BKN030

EXPIRED METARs :
  • 090900Z AUTO 26012KT 9999 BKN013/// BKN018/// OVC050/// ///CB 08/07 Q1003 TEMPO 3000 SHRA BECMG 30015G25KT BKN030
  • 090830Z AUTO 23010KT 3800 -RA BR BKN016/// BKN023/// OVC029/// ///CB 07/06 Q1002 BECMG 30015G25KT 9999 NSW BKN030
  • 090800Z AUTO 24012KT 5000 RA BR SCT016/// BKN021/// BKN027/// ///CB 07/06 Q1002 TEMPO 28020G37KT
  • 090730Z AUTO 23015KT 8000 RA FEW016/// SCT029/// BKN036/// ///CB 08/06 Q1002 TEMPO 28020G37KT 3000 SHRA
  • 090700Z AUTO 23015KT 200V270 9999 RA SCT020/// BKN029/// OVC041/// ///CB 07/05 Q1002

TAF TAF LFPB
Valid from the 09 at 06:00 until the 10 at 06:00 UTC


090500Z 0906/1006 24015G25KT 9999 BKN030
TEMPO 0906/0910 28020G37KT 3000 SHRA SCT020CB BKN030
BECMG 0910/0912 30015G25KT
TEMPO 0911/0915 32020G35KT 4000 SHRA FEW030CB BKN030
BECMG 0919/0921 32012KT CAVOK
BECMG 1000/1003 22005KT
PROB30 1004/1006 4000 BR
ATIS : +33 1 48 62 43 92



MET'MAP, your aeronautical weather chart ! - Copyright ORBIFLY December 2007 - Disclaimer

ORBIFLY MET'MAP TEAM :

Programming & Development : Alexandra Zaïnal
Concept & original design : Baudouin d'Aumeries
Assistance for programming : Marc-Olivier Méhu
Technical & hardware support : Manuel Goepfert

Contact : metmap@orbifly.com




SOURCES & CREDITS :

   NOAA